sensor_id;sensor_type;location;lat;lon;timestamp;pressure;altitude;pressure_sealevel;temperature;humidity
62655;BME280;48717;55.556;37.816;2023-04-07T00:01:36;100302.28;;;3.22;50.75
62655;BME280;48717;55.556;37.816;2023-04-07T00:04:03;100283.59;;;3.09;50.65
62655;BME280;48717;55.556;37.816;2023-04-07T00:06:30;100305.47;;;3.15;50.94
62655;BME280;48717;55.556;37.816;2023-04-07T00:08:58;100296.72;;;3.12;50.73
62655;BME280;48717;55.556;37.816;2023-04-07T00:11:25;100285.13;;;3.04;50.24
62655;BME280;48717;55.556;37.816;2023-04-07T00:13:52;100302.63;;;3.08;51.09
62655;BME280;48717;55.556;37.816;2023-04-07T00:16:19;100288.41;;;2.98;50.80
62655;BME280;48717;55.556;37.816;2023-04-07T00:18:47;100304.91;;;2.99;50.69
62655;BME280;48717;55.556;37.816;2023-04-07T00:21:14;100298.81;;;2.98;51.05
62655;BME280;48717;55.556;37.816;2023-04-07T00:23:41;100300.53;;;2.98;51.43
62655;BME280;48717;55.556;37.816;2023-04-07T00:26:08;100298.75;;;2.97;50.80
62655;BME280;48717;55.556;37.816;2023-04-07T00:28:36;100292.50;;;2.92;51.72
62655;BME280;48717;55.556;37.816;2023-04-07T00:31:03;100289.63;;;2.85;50.91
62655;BME280;48717;55.556;37.816;2023-04-07T00:33:30;100301.88;;;2.88;51.67
62655;BME280;48717;55.556;37.816;2023-04-07T00:35:57;100287.72;;;2.80;51.41
62655;BME280;48717;55.556;37.816;2023-04-07T00:38:24;100293.13;;;2.86;51.57
62655;BME280;48717;55.556;37.816;2023-04-07T00:41:00;100303.44;;;2.83;51.81
62655;BME280;48717;55.556;37.816;2023-04-07T00:43:27;100294.50;;;2.76;51.50
62655;BME280;48717;55.556;37.816;2023-04-07T00:45:54;100291.72;;;2.71;52.26
62655;BME280;48717;55.556;37.816;2023-04-07T00:48:22;100259.81;;;2.54;51.92
62655;BME280;48717;55.556;37.816;2023-04-07T00:50:49;100272.13;;;2.58;51.68
62655;BME280;48717;55.556;37.816;2023-04-07T00:53:16;100301.03;;;2.65;51.72
62655;BME280;48717;55.556;37.816;2023-04-07T00:55:44;100305.25;;;2.63;51.92
62655;BME280;48717;55.556;37.816;2023-04-07T00:58:11;100265.38;;;2.41;52.26
62655;BME280;48717;55.556;37.816;2023-04-07T01:00:48;100295.47;;;2.55;52.95
62655;BME280;48717;55.556;37.816;2023-04-07T01:03:29;100298.06;;;2.55;52.59
62655;BME280;48717;55.556;37.816;2023-04-07T01:06:05;100279.22;;;2.40;53.11
62655;BME280;48717;55.556;37.816;2023-04-07T01:11:23;100299.47;;;2.47;52.94
62655;BME280;48717;55.556;37.816;2023-04-07T01:13:53;100284.28;;;2.37;53.09
62655;BME280;48717;55.556;37.816;2023-04-07T01:16:50;100307.09;;;2.42;53.37
62655;BME280;48717;55.556;37.816;2023-04-07T01:19:31;100300.69;;;2.34;53.17
62655;BME280;48717;55.556;37.816;2023-04-07T01:22:00;100305.00;;;2.33;53.16
62655;BME280;48717;55.556;37.816;2023-04-07T01:30:22;100295.63;;;2.16;53.67
62655;BME280;48717;55.556;37.816;2023-04-07T01:32:51;100284.03;;;2.07;53.79
62655;BME280;48717;55.556;37.816;2023-04-07T01:35:21;100301.53;;;2.12;54.26
62655;BME280;48717;55.556;37.816;2023-04-07T01:37:49;100268.75;;;1.94;54.23
62655;BME280;48717;55.556;37.816;2023-04-07T01:40:20;100298.59;;;2.04;53.98
62655;BME280;48717;55.556;37.816;2023-04-07T01:42:47;100313.41;;;2.05;54.47
62655;BME280;48717;55.556;37.816;2023-04-07T01:45:17;100302.78;;;2.00;54.54
62655;BME280;48717;55.556;37.816;2023-04-07T01:47:44;100304.56;;;2.01;54.62
62655;BME280;48717;55.556;37.816;2023-04-07T01:50:12;100284.91;;;1.87;54.15
62655;BME280;48717;55.556;37.816;2023-04-07T01:52:40;100297.34;;;1.94;54.05
62655;BME280;48717;55.556;37.816;2023-04-07T01:55:09;100297.34;;;1.94;54.90
62655;BME280;48717;55.556;37.816;2023-04-07T01:57:42;100293.41;;;1.82;54.52
62655;BME280;48717;55.556;37.816;2023-04-07T02:00:14;100297.97;;;1.88;55.03
62655;BME280;48717;55.556;37.816;2023-04-07T02:02:43;100286.28;;;1.78;54.37
62655;BME280;48717;55.556;37.816;2023-04-07T02:05:12;100289.56;;;1.74;54.94
62655;BME280;48717;55.556;37.816;2023-04-07T02:10:12;100295.75;;;1.76;55.79
62655;BME280;48717;55.556;37.816;2023-04-07T02:12:41;100304.25;;;1.72;55.16
62655;BME280;48717;55.556;37.816;2023-04-07T02:15:14;100298.00;;;1.68;55.50
62655;BME280;48717;55.556;37.816;2023-04-07T02:17:54;100304.78;;;1.65;55.55
62655;BME280;48717;55.556;37.816;2023-04-07T02:20:22;100284.09;;;1.47;56.02
62655;BME280;48717;55.556;37.816;2023-04-07T02:22:50;100292.97;;;1.52;55.78
62655;BME280;48717;55.556;37.816;2023-04-07T02:25:35;100291.94;;;1.48;56.18
62655;BME280;48717;55.556;37.816;2023-04-07T02:28:04;100290.16;;;1.47;56.30
62655;BME280;48717;55.556;37.816;2023-04-07T02:30:34;100279.88;;;1.29;56.59
62655;BME280;48717;55.556;37.816;2023-04-07T02:33:03;100293.88;;;1.33;56.90
62655;BME280;48717;55.556;37.816;2023-04-07T02:35:30;100302.63;;;1.35;56.88
62655;BME280;48717;55.556;37.816;2023-04-07T02:37:57;100305.38;;;1.38;56.81
62655;BME280;48717;55.556;37.816;2023-04-07T02:40:24;100312.06;;;1.33;57.05
62655;BME280;48717;55.556;37.816;2023-04-07T02:42:52;100305.97;;;1.32;57.48
62655;BME280;48717;55.556;37.816;2023-04-07T02:45:21;100315.50;;;1.32;57.33
62655;BME280;48717;55.556;37.816;2023-04-07T02:47:48;100295.09;;;1.21;57.14
62655;BME280;48717;55.556;37.816;2023-04-07T02:50:17;100308.09;;;1.21;57.34
62655;BME280;48717;55.556;37.816;2023-04-07T02:52:44;100324.84;;;1.28;57.93
62655;BME280;48717;55.556;37.816;2023-04-07T02:55:13;100292.69;;;1.06;57.00
62655;BME280;48717;55.556;37.816;2023-04-07T02:57:40;100326.09;;;1.16;58.02
62655;BME280;48717;55.556;37.816;2023-04-07T03:00:20;100317.53;;;1.19;58.07
62655;BME280;48717;55.556;37.816;2023-04-07T03:03:06;100313.19;;;1.18;57.80
62655;BME280;48717;55.556;37.816;2023-04-07T03:05:36;100318.97;;;1.12;57.51
62655;BME280;48717;55.556;37.816;2023-04-07T03:08:04;100316.56;;;1.17;58.07
62655;BME280;48717;55.556;37.816;2023-04-07T03:10:32;100319.03;;;1.14;58.21
62655;BME280;48717;55.556;37.816;2023-04-07T03:12:59;100323.41;;;1.15;58.20
62655;BME280;48717;55.556;37.816;2023-04-07T03:15:27;100313.56;;;1.08;58.42
62655;BME280;48717;55.556;37.816;2023-04-07T03:17:54;100326.69;;;1.11;58.49
62655;BME280;48717;55.556;37.816;2023-04-07T03:20:22;100295.56;;;0.93;58.25
62655;BME280;48717;55.556;37.816;2023-04-07T03:22:49;100324.09;;;1.11;58.26
62655;BME280;48717;55.556;37.816;2023-04-07T03:25:26;100331.72;;;1.08;58.38
62655;BME280;48717;55.556;37.816;2023-04-07T03:27:54;100336.94;;;1.08;58.47
62655;BME280;48717;55.556;37.816;2023-04-07T03:30:22;100341.28;;;1.09;59.03
62655;BME280;48717;55.556;37.816;2023-04-07T03:32:49;100348.22;;;1.08;58.51
62655;BME280;48717;55.556;37.816;2023-04-07T03:35:16;100342.00;;;1.04;59.20
62655;BME280;48717;55.556;37.816;2023-04-07T03:37:43;100337.59;;;1.03;58.10
62655;BME280;48717;55.556;37.816;2023-04-07T03:40:15;100326.44;;;1.04;58.91
62655;BME280;48717;55.556;37.816;2023-04-07T03:42:44;100337.84;;;1.08;58.74
62655;BME280;48717;55.556;37.816;2023-04-07T03:45:13;100340.69;;;1.14;58.19
62655;BME280;48717;55.556;37.816;2023-04-07T03:47:45;100340.50;;;1.10;58.16
62655;BME280;48717;55.556;37.816;2023-04-07T03:50:13;100341.53;;;1.13;58.01
62655;BME280;48717;55.556;37.816;2023-04-07T03:52:50;100341.34;;;1.28;58.68
62655;BME280;48717;55.556;37.816;2023-04-07T03:55:26;100348.72;;;1.39;58.78
62655;BME280;48717;55.556;37.816;2023-04-07T03:57:59;100344.22;;;1.54;57.45
62655;BME280;48717;55.556;37.816;2023-04-07T04:00:30;100353.03;;;1.78;56.80
62655;BME280;48717;55.556;37.816;2023-04-07T04:03:07;100344.16;;;1.94;56.84
62655;BME280;48717;55.556;37.816;2023-04-07T04:05:40;100356.41;;;2.18;55.85
62655;BME280;48717;55.556;37.816;2023-04-07T04:08:11;100352.78;;;2.35;55.15
62655;BME280;48717;55.556;37.816;2023-04-07T04:10:39;100356.75;;;2.47;54.67
62655;BME280;48717;55.556;37.816;2023-04-07T04:13:08;100349.59;;;2.64;53.84
62655;BME280;48717;55.556;37.816;2023-04-07T04:15:36;100361.13;;;2.71;53.44
62655;BME280;48717;55.556;37.816;2023-04-07T04:18:07;100348.13;;;2.94;52.69
62655;BME280;48717;55.556;37.816;2023-04-07T04:20:34;100354.75;;;3.31;52.36
62655;BME280;48717;55.556;37.816;2023-04-07T04:23:04;100352.41;;;3.63;51.45
62655;BME280;48717;55.556;37.816;2023-04-07T04:25:33;100353.97;;;3.83;51.26
62655;BME280;48717;55.556;37.816;2023-04-07T04:28:04;100359.09;;;4.05;49.96
62655;BME280;48717;55.556;37.816;2023-04-07T04:30:31;100359.16;;;4.35;49.17
62655;BME280;48717;55.556;37.816;2023-04-07T04:33:02;100328.91;;;4.41;48.30
62655;BME280;48717;55.556;37.816;2023-04-07T04:35:41;100361.06;;;4.66;47.87
62655;BME280;48717;55.556;37.816;2023-04-07T04:38:11;100365.66;;;5.03;46.96
62655;BME280;48717;55.556;37.816;2023-04-07T04:40:44;100348.56;;;5.14;45.79
62655;BME280;48717;55.556;37.816;2023-04-07T04:43:14;100350.22;;;5.41;45.73
62655;BME280;48717;55.556;37.816;2023-04-07T04:45:42;100362.16;;;5.62;45.11
62655;BME280;48717;55.556;37.816;2023-04-07T04:48:11;100365.06;;;5.74;44.56
62655;BME280;48717;55.556;37.816;2023-04-07T04:50:38;100358.13;;;5.75;44.61
62655;BME280;48717;55.556;37.816;2023-04-07T04:53:10;100358.09;;;6.06;44.03
62655;BME280;48717;55.556;37.816;2023-04-07T04:55:44;100359.53;;;6.28;43.07
62655;BME280;48717;55.556;37.816;2023-04-07T04:58:19;100350.00;;;6.30;42.55
62655;BME280;48717;55.556;37.816;2023-04-07T05:00:52;100346.50;;;6.66;42.35
62655;BME280;48717;55.556;37.816;2023-04-07T05:03:28;100373.00;;;6.79;41.73
62655;BME280;48717;55.556;37.816;2023-04-07T05:06:00;100378.28;;;6.82;41.37
62655;BME280;48717;55.556;37.816;2023-04-07T05:08:27;100373.03;;;6.82;41.34
62655;BME280;48717;55.556;37.816;2023-04-07T05:10:56;100381.16;;;6.93;41.45
62655;BME280;48717;55.556;37.816;2023-04-07T05:13:26;100375.56;;;7.17;41.06
62655;BME280;48717;55.556;37.816;2023-04-07T05:15:53;100380.59;;;7.48;40.32
62655;BME280;48717;55.556;37.816;2023-04-07T05:18:20;100375.59;;;7.61;39.96
62655;BME280;48717;55.556;37.816;2023-04-07T05:20:48;100370.97;;;7.93;39.58
62655;BME280;48717;55.556;37.816;2023-04-07T05:23:16;100374.75;;;8.09;39.04
62655;BME280;48717;55.556;37.816;2023-04-07T05:25:46;100377.78;;;8.33;38.89
62655;BME280;48717;55.556;37.816;2023-04-07T05:28:13;100387.09;;;8.14;38.28
62655;BME280;48717;55.556;37.816;2023-04-07T05:30:40;100373.22;;;8.21;38.27
62655;BME280;48717;55.556;37.816;2023-04-07T05:33:08;100390.19;;;8.40;38.21
62655;BME280;48717;55.556;37.816;2023-04-07T05:35:40;100381.44;;;8.41;37.81
62655;BME280;48717;55.556;37.816;2023-04-07T05:38:09;100392.69;;;8.32;37.84
62655;BME280;48717;55.556;37.816;2023-04-07T05:40:38;100394.00;;;8.08;38.08
62655;BME280;48717;55.556;37.816;2023-04-07T05:43:08;100386.91;;;8.04;38.37
62655;BME280;48717;55.556;37.816;2023-04-07T05:45:35;100388.06;;;8.20;38.07
62655;BME280;48717;55.556;37.816;2023-04-07T05:48:04;100400.13;;;8.58;37.33
62655;BME280;48717;55.556;37.816;2023-04-07T05:50:43;100400.53;;;8.83;36.96
62655;BME280;48717;55.556;37.816;2023-04-07T05:53:14;100364.66;;;8.85;36.87
62655;BME280;48717;55.556;37.816;2023-04-07T05:55:42;100390.69;;;9.30;36.56
62655;BME280;48717;55.556;37.816;2023-04-07T05:58:13;100391.03;;;9.58;36.14
62655;BME280;48717;55.556;37.816;2023-04-07T06:00:46;100391.41;;;9.89;35.41
62655;BME280;48717;55.556;37.816;2023-04-07T06:03:15;100381.03;;;10.08;35.33
62655;BME280;48717;55.556;37.816;2023-04-07T06:05:52;100360.03;;;10.14;34.08
62655;BME280;48717;55.556;37.816;2023-04-07T06:08:21;100377.91;;;10.45;34.25
62655;BME280;48717;55.556;37.816;2023-04-07T06:10:48;100392.16;;;10.67;33.61
62655;BME280;48717;55.556;37.816;2023-04-07T06:13:15;100387.88;;;10.87;33.86
62655;BME280;48717;55.556;37.816;2023-04-07T06:15:42;100399.41;;;11.00;32.85
62655;BME280;48717;55.556;37.816;2023-04-07T06:18:09;100400.16;;;10.81;33.32
62655;BME280;48717;55.556;37.816;2023-04-07T06:20:38;100390.47;;;10.79;32.82
62655;BME280;48717;55.556;37.816;2023-04-07T06:23:06;100394.03;;;10.84;33.24
62655;BME280;48717;55.556;37.816;2023-04-07T06:25:33;100383.47;;;10.86;33.27
62655;BME280;48717;55.556;37.816;2023-04-07T06:28:00;100402.97;;;11.06;33.05
62655;BME280;48717;55.556;37.816;2023-04-07T06:30:27;100397.88;;;11.39;31.86
62655;BME280;48717;55.556;37.816;2023-04-07T06:32:55;100383.00;;;11.57;31.82
62655;BME280;48717;55.556;37.816;2023-04-07T06:35:23;100394.56;;;11.99;31.83
62655;BME280;48717;55.556;37.816;2023-04-07T06:37:52;100377.91;;;12.29;31.05
62655;BME280;48717;55.556;37.816;2023-04-07T06:40:20;100404.34;;;12.78;30.18
62655;BME280;48717;55.556;37.816;2023-04-07T06:42:47;100398.16;;;13.01;29.73
62655;BME280;48717;55.556;37.816;2023-04-07T06:45:21;100399.03;;;13.06;29.82
62655;BME280;48717;55.556;37.816;2023-04-07T06:47:49;100400.72;;;13.48;29.16
62655;BME280;48717;55.556;37.816;2023-04-07T06:50:16;100401.59;;;13.50;28.43
62655;BME280;48717;55.556;37.816;2023-04-07T06:52:46;100399.78;;;13.62;28.23
62655;BME280;48717;55.556;37.816;2023-04-07T06:55:13;100397.88;;;13.89;28.27
62655;BME280;48717;55.556;37.816;2023-04-07T06:57:40;100380.88;;;14.24;27.43
62655;BME280;48717;55.556;37.816;2023-04-07T07:00:07;100390.59;;;14.25;27.25
62655;BME280;48717;55.556;37.816;2023-04-07T07:02:35;100390.63;;;14.22;27.97
62655;BME280;48717;55.556;37.816;2023-04-07T07:05:02;100381.63;;;14.42;27.55
62655;BME280;48717;55.556;37.816;2023-04-07T07:07:30;100395.56;;;14.69;27.32
62655;BME280;48717;55.556;37.816;2023-04-07T07:09:57;100386.69;;;14.76;26.46
62655;BME280;48717;55.556;37.816;2023-04-07T07:12:24;100386.56;;;14.88;26.34
62655;BME280;48717;55.556;37.816;2023-04-07T07:14:51;100391.81;;;14.96;26.15
62655;BME280;48717;55.556;37.816;2023-04-07T07:17:18;100382.91;;;15.02;25.58
62655;BME280;48717;55.556;37.816;2023-04-07T07:19:45;100382.72;;;15.18;26.17
62655;BME280;48717;55.556;37.816;2023-04-07T07:22:12;100384.31;;;15.34;25.93
62655;BME280;48717;55.556;37.816;2023-04-07T07:24:39;100389.03;;;15.81;25.59
62655;BME280;48717;55.556;37.816;2023-04-07T07:27:06;100396.81;;;16.00;24.50
62655;BME280;48717;55.556;37.816;2023-04-07T07:29:33;100390.34;;;16.16;24.56
62655;BME280;48717;55.556;37.816;2023-04-07T07:32:00;100385.97;;;16.69;23.54
62655;BME280;48717;55.556;37.816;2023-04-07T07:34:27;100393.78;;;16.78;23.99
62655;BME280;48717;55.556;37.816;2023-04-07T07:36:54;100393.28;;;16.56;24.28
62655;BME280;48717;55.556;37.816;2023-04-07T07:39:21;100402.22;;;16.52;23.12
62655;BME280;48717;55.556;37.816;2023-04-07T07:41:48;100388.78;;;16.60;23.39
62655;BME280;48717;55.556;37.816;2023-04-07T07:44:16;100393.34;;;16.53;23.40
62655;BME280;48717;55.556;37.816;2023-04-07T07:46:43;100386.66;;;16.27;23.94
62655;BME280;48717;55.556;37.816;2023-04-07T07:49:10;100394.13;;;16.60;23.56
62655;BME280;48717;55.556;37.816;2023-04-07T07:51:37;100368.34;;;16.60;23.23
62655;BME280;48717;55.556;37.816;2023-04-07T07:54:04;100369.84;;;16.77;23.27
62655;BME280;48717;55.556;37.816;2023-04-07T07:56:31;100393.97;;;16.69;23.38
62655;BME280;48717;55.556;37.816;2023-04-07T07:58:58;100380.63;;;16.70;23.19
62655;BME280;48717;55.556;37.816;2023-04-07T08:01:25;100377.69;;;16.84;23.30
62655;BME280;48717;55.556;37.816;2023-04-07T08:03:52;100385.88;;;16.74;23.13
62655;BME280;48717;55.556;37.816;2023-04-07T08:06:20;100385.41;;;16.50;23.82
62655;BME280;48717;55.556;37.816;2023-04-07T08:08:47;100391.97;;;16.80;23.18
62655;BME280;48717;55.556;37.816;2023-04-07T08:11:14;100384.63;;;17.42;22.31
62655;BME280;48717;55.556;37.816;2023-04-07T08:13:42;100372.09;;;17.47;21.89
62655;BME280;48717;55.556;37.816;2023-04-07T08:16:12;100356.50;;;17.27;22.08
62655;BME280;48717;55.556;37.816;2023-04-07T08:18:39;100361.69;;;17.35;22.07
62655;BME280;48717;55.556;37.816;2023-04-07T08:21:06;100366.97;;;17.37;21.48
62655;BME280;48717;55.556;37.816;2023-04-07T08:23:34;100369.06;;;17.20;21.24
62655;BME280;48717;55.556;37.816;2023-04-07T08:26:00;100374.75;;;17.47;21.58
62655;BME280;48717;55.556;37.816;2023-04-07T08:28:28;100369.59;;;17.81;20.80
62655;BME280;48717;55.556;37.816;2023-04-07T08:30:55;100366.34;;;18.07;20.53
62655;BME280;48717;55.556;37.816;2023-04-07T08:33:22;100367.78;;;17.83;20.48
62655;BME280;48717;55.556;37.816;2023-04-07T08:35:49;100345.09;;;17.63;20.30
62655;BME280;48717;55.556;37.816;2023-04-07T08:38:16;100372.84;;;17.95;20.45
62655;BME280;48717;55.556;37.816;2023-04-07T08:40:44;100372.88;;;17.94;20.16
62655;BME280;48717;55.556;37.816;2023-04-07T08:43:11;100343.84;;;18.19;20.71
62655;BME280;48717;55.556;37.816;2023-04-07T08:45:40;100342.78;;;18.63;21.38
62655;BME280;48717;55.556;37.816;2023-04-07T08:48:23;100355.09;;;19.02;19.40
62655;BME280;48717;55.556;37.816;2023-04-07T08:50:55;100347.31;;;18.92;18.84
62655;BME280;48717;55.556;37.816;2023-04-07T08:53:34;100363.41;;;18.91;20.03
62655;BME280;48717;55.556;37.816;2023-04-07T08:56:03;100350.97;;;18.90;19.80
62655;BME280;48717;55.556;37.816;2023-04-07T08:58:32;100324.84;;;18.33;20.23
62655;BME280;48717;55.556;37.816;2023-04-07T09:01:03;100357.72;;;17.94;19.92
62655;BME280;48717;55.556;37.816;2023-04-07T09:03:32;100373.44;;;17.25;20.84
62655;BME280;48717;55.556;37.816;2023-04-07T09:06:02;100355.84;;;17.16;21.39
62655;BME280;48717;55.556;37.816;2023-04-07T09:08:29;100366.41;;;17.63;20.54
62655;BME280;48717;55.556;37.816;2023-04-07T09:10:57;100351.03;;;17.76;21.08
62655;BME280;48717;55.556;37.816;2023-04-07T09:13:24;100352.75;;;17.36;20.28
62655;BME280;48717;55.556;37.816;2023-04-07T09:15:51;100368.25;;;17.17;21.05
62655;BME280;48717;55.556;37.816;2023-04-07T09:18:19;100329.03;;;16.75;21.00
62655;BME280;48717;55.556;37.816;2023-04-07T09:20:58;100353.53;;;16.95;20.82
62655;BME280;48717;55.556;37.816;2023-04-07T09:23:37;100363.75;;;17.20;21.21
62655;BME280;48717;55.556;37.816;2023-04-07T09:28:56;100365.22;;;17.37;20.97
62655;BME280;48717;55.556;37.816;2023-04-07T09:34:30;100332.13;;;17.02;21.46
62655;BME280;48717;55.556;37.816;2023-04-07T09:36:57;100363.22;;;17.00;21.27
62655;BME280;48717;55.556;37.816;2023-04-07T09:39:25;100361.91;;;17.22;21.29
62655;BME280;48717;55.556;37.816;2023-04-07T09:41:52;100368.72;;;16.90;20.97
62655;BME280;48717;55.556;37.816;2023-04-07T09:44:21;100366.00;;;16.93;20.75
62655;BME280;48717;55.556;37.816;2023-04-07T09:46:53;100342.09;;;16.38;21.63
62655;BME280;48717;55.556;37.816;2023-04-07T09:49:23;100365.06;;;16.46;21.43
62655;BME280;48717;55.556;37.816;2023-04-07T09:52:00;100348.31;;;16.39;21.26
62655;BME280;48717;55.556;37.816;2023-04-07T09:54:38;100361.25;;;16.62;21.02
62655;BME280;48717;55.556;37.816;2023-04-07T09:57:10;100363.81;;;16.65;21.07
62655;BME280;48717;55.556;37.816;2023-04-07T09:59:39;100360.94;;;16.78;20.61
62655;BME280;48717;55.556;37.816;2023-04-07T10:02:08;100357.06;;;16.98;20.95
62655;BME280;48717;55.556;37.816;2023-04-07T10:04:35;100339.41;;;16.90;21.11
62655;BME280;48717;55.556;37.816;2023-04-07T10:07:03;100362.97;;;17.15;20.60
62655;BME280;48717;55.556;37.816;2023-04-07T10:09:31;100353.88;;;17.26;20.73
62655;BME280;48717;55.556;37.816;2023-04-07T10:11:58;100343.91;;;17.35;20.90
62655;BME280;48717;55.556;37.816;2023-04-07T10:14:29;100359.69;;;17.46;19.96
62655;BME280;48717;55.556;37.816;2023-04-07T10:16:58;100364.47;;;17.71;19.51
62655;BME280;48717;55.556;37.816;2023-04-07T10:19:29;100355.38;;;17.82;19.14
62655;BME280;48717;55.556;37.816;2023-04-07T10:21:58;100351.56;;;17.92;19.34
62655;BME280;48717;55.556;37.816;2023-04-07T10:24:36;100363.31;;;17.83;18.80
62655;BME280;48717;55.556;37.816;2023-04-07T10:27:13;100351.56;;;17.92;19.85
62655;BME280;48717;55.556;37.816;2023-04-07T10:29:44;100352.00;;;17.73;19.67
62655;BME280;48717;55.556;37.816;2023-04-07T10:32:12;100357.50;;;18.43;19.07
62655;BME280;48717;55.556;37.816;2023-04-07T10:37:16;100338.94;;;18.00;19.10
62655;BME280;48717;55.556;37.816;2023-04-07T10:39:47;100358.59;;;17.96;19.07
62655;BME280;48717;55.556;37.816;2023-04-07T10:45:08;100319.66;;;18.95;18.13
62655;BME280;48717;55.556;37.816;2023-04-07T10:50:25;100346.69;;;18.83;18.33
62655;BME280;48717;55.556;37.816;2023-04-07T10:53:15;100353.28;;;18.34;19.09
62655;BME280;48717;55.556;37.816;2023-04-07T10:55:43;100339.78;;;18.01;19.86
62655;BME280;48717;55.556;37.816;2023-04-07T10:58:27;100354.31;;;18.29;19.24
62655;BME280;48717;55.556;37.816;2023-04-07T11:03:38;100357.97;;;18.24;19.32
62655;BME280;48717;55.556;37.816;2023-04-07T11:06:12;100329.53;;;18.58;19.10
62655;BME280;48717;55.556;37.816;2023-04-07T11:08:42;100341.38;;;19.16;18.72
62655;BME280;48717;55.556;37.816;2023-04-07T11:11:14;100343.63;;;19.62;18.26
62655;BME280;48717;55.556;37.816;2023-04-07T11:16:09;100350.59;;;19.36;17.62
62655;BME280;48717;55.556;37.816;2023-04-07T11:18:37;100341.63;;;19.38;18.26
62655;BME280;48717;55.556;37.816;2023-04-07T11:21:06;100344.97;;;19.15;18.30
62655;BME280;48717;55.556;37.816;2023-04-07T11:23:41;100336.34;;;19.03;18.50
62655;BME280;48717;55.556;37.816;2023-04-07T11:26:11;100332.63;;;19.11;18.49
62655;BME280;48717;55.556;37.816;2023-04-07T11:28:45;100340.13;;;19.60;17.61
62655;BME280;48717;55.556;37.816;2023-04-07T11:31:27;100347.94;;;19.36;18.14
62655;BME280;48717;55.556;37.816;2023-04-07T11:33:56;100330.78;;;19.73;17.49
62655;BME280;48717;55.556;37.816;2023-04-07T11:36:25;100344.00;;;19.17;17.84
62655;BME280;48717;55.556;37.816;2023-04-07T11:38:53;100328.41;;;19.00;17.96
62655;BME280;48717;55.556;37.816;2023-04-07T11:41:21;100350.13;;;19.21;18.15
62655;BME280;48717;55.556;37.816;2023-04-07T11:43:48;100313.25;;;19.63;16.97
62655;BME280;48717;55.556;37.816;2023-04-07T11:46:17;100336.34;;;20.24;16.95
62655;BME280;48717;55.556;37.816;2023-04-07T11:48:44;100344.59;;;19.27;17.55
62655;BME280;48717;55.556;37.816;2023-04-07T11:51:17;100302.38;;;19.09;17.38
62655;BME280;48717;55.556;37.816;2023-04-07T11:53:45;100340.84;;;19.35;17.57
62655;BME280;48717;55.556;37.816;2023-04-07T11:56:15;100308.47;;;19.44;17.29
62655;BME280;48717;55.556;37.816;2023-04-07T11:58:50;100322.56;;;19.49;17.86
62655;BME280;48717;55.556;37.816;2023-04-07T12:01:18;100321.81;;;19.46;18.15
62655;BME280;48717;55.556;37.816;2023-04-07T12:04:00;100324.34;;;19.50;17.97
62655;BME280;48717;55.556;37.816;2023-04-07T12:06:33;100307.31;;;19.54;18.06
62655;BME280;48717;55.556;37.816;2023-04-07T12:09:01;100305.28;;;19.90;17.85
62655;BME280;48717;55.556;37.816;2023-04-07T12:11:28;100315.22;;;19.57;17.51
62655;BME280;48717;55.556;37.816;2023-04-07T12:13:56;100312.03;;;19.44;17.67
62655;BME280;48717;55.556;37.816;2023-04-07T12:16:23;100324.84;;;19.92;17.52
62655;BME280;48717;55.556;37.816;2023-04-07T12:18:50;100338.91;;;20.00;17.09
62655;BME280;48717;55.556;37.816;2023-04-07T12:21:18;100333.56;;;20.00;16.86
62655;BME280;48717;55.556;37.816;2023-04-07T12:23:46;100325.00;;;20.16;17.19
62655;BME280;48717;55.556;37.816;2023-04-07T12:26:14;100313.53;;;20.39;16.85
62655;BME280;48717;55.556;37.816;2023-04-07T12:28:41;100344.28;;;20.27;17.17
62655;BME280;48717;55.556;37.816;2023-04-07T12:31:08;100324.09;;;20.17;16.82
62655;BME280;48717;55.556;37.816;2023-04-07T12:33:38;100304.69;;;20.10;16.55
62655;BME280;48717;55.556;37.816;2023-04-07T12:36:05;100324.97;;;20.97;16.44
62655;BME280;48717;55.556;37.816;2023-04-07T12:38:33;100299.19;;;21.41;15.77
62655;BME280;48717;55.556;37.816;2023-04-07T12:41:00;100316.09;;;21.67;15.29
62655;BME280;48717;55.556;37.816;2023-04-07T12:43:30;100329.75;;;21.12;16.18
62655;BME280;48717;55.556;37.816;2023-04-07T12:45:57;100331.84;;;21.04;16.46
62655;BME280;48717;55.556;37.816;2023-04-07T12:48:24;100322.31;;;21.21;16.14
62655;BME280;48717;55.556;37.816;2023-04-07T12:50:53;100324.88;;;21.48;15.81
62655;BME280;48717;55.556;37.816;2023-04-07T12:53:20;100318.81;;;21.19;15.69
62655;BME280;48717;55.556;37.816;2023-04-07T12:55:48;100330.69;;;21.83;15.24
62655;BME280;48717;55.556;37.816;2023-04-07T12:58:16;100334.31;;;21.10;15.63
62655;BME280;48717;55.556;37.816;2023-04-07T13:00:45;100329.44;;;20.96;15.43
62655;BME280;48717;55.556;37.816;2023-04-07T13:03:14;100340.97;;;20.46;15.69
62655;BME280;48717;55.556;37.816;2023-04-07T13:05:41;100329.72;;;20.07;16.22
62655;BME280;48717;55.556;37.816;2023-04-07T13:08:09;100333.84;;;19.30;17.58
62655;BME280;48717;55.556;37.816;2023-04-07T13:10:36;100321.00;;;18.44;17.81
62655;BME280;48717;55.556;37.816;2023-04-07T13:13:03;100318.84;;;18.58;17.83
62655;BME280;48717;55.556;37.816;2023-04-07T13:15:31;100340.59;;;18.77;18.26
62655;BME280;48717;55.556;37.816;2023-04-07T13:17:58;100328.56;;;19.27;17.43
62655;BME280;48717;55.556;37.816;2023-04-07T13:20:25;100342.75;;;19.90;17.04
62655;BME280;48717;55.556;37.816;2023-04-07T13:22:53;100330.28;;;20.46;16.37
62655;BME280;48717;55.556;37.816;2023-04-07T13:25:33;100334.16;;;20.90;16.41
62655;BME280;48717;55.556;37.816;2023-04-07T13:28:00;100322.75;;;20.03;17.12